createdAt,value
2023-04-02T00:00:41.815Z,34.37
2023-04-02T00:01:41.827Z,34.36
2023-04-02T00:02:41.903Z,34.37
2023-04-02T00:03:41.972Z,34.31
2023-04-02T00:04:41.963Z,34.38
2023-04-02T00:05:41.993Z,34.32
2023-04-02T00:06:42.026Z,34.32
2023-04-02T00:07:42.075Z,34.36
2023-04-02T00:08:42.092Z,34.36
2023-04-02T00:09:42.116Z,34.31
2023-04-02T00:10:42.152Z,34.36
2023-04-02T00:11:42.206Z,34.39
2023-04-02T00:12:42.247Z,34.32
2023-04-02T00:13:42.263Z,34.36
2023-04-02T00:14:42.319Z,34.37
2023-04-02T00:15:42.310Z,34.32
2023-04-02T00:16:42.444Z,34.30
2023-04-02T00:17:42.428Z,34.27
2023-04-02T00:18:42.437Z,34.30
2023-04-02T00:19:42.467Z,34.24
2023-04-02T00:20:42.519Z,34.33
2023-04-02T00:21:42.552Z,34.31
2023-04-02T00:22:42.605Z,34.31
2023-04-02T00:23:42.632Z,34.27
2023-04-02T00:24:42.664Z,34.27
2023-04-02T00:25:42.728Z,34.30
2023-04-02T00:26:42.718Z,34.28
2023-04-02T00:27:42.793Z,34.25
2023-04-02T00:28:42.802Z,34.27
2023-04-02T00:29:42.846Z,34.24
2023-04-02T00:30:43.776Z,34.27
2023-04-02T00:31:42.944Z,34.21
2023-04-02T00:32:42.978Z,34.27
2023-04-02T00:33:42.984Z,34.24
2023-04-02T00:34:43.018Z,34.27
2023-04-02T00:35:43.077Z,34.24
2023-04-02T00:36:43.106Z,34.26
2023-04-02T00:37:43.172Z,34.27
2023-04-02T00:38:43.150Z,34.28
2023-04-02T00:39:43.197Z,34.30
2023-04-02T00:40:43.248Z,34.27
2023-04-02T00:41:43.297Z,34.30
2023-04-02T00:42:43.343Z,34.31
2023-04-02T00:43:43.356Z,34.28
2023-04-02T00:44:43.391Z,34.27
2023-04-02T00:45:43.461Z,34.23
2023-04-02T00:46:43.504Z,34.22
2023-04-02T00:47:43.529Z,34.24
2023-04-02T00:48:43.544Z,34.27
2023-04-02T00:49:43.574Z,34.19
2023-04-02T00:50:43.632Z,34.24
2023-04-02T00:51:43.622Z,34.21
2023-04-02T00:52:43.699Z,34.20
2023-04-02T00:53:43.718Z,34.21
2023-04-02T00:54:43.731Z,34.21
2023-04-02T00:55:43.805Z,34.22
2023-04-02T00:56:43.801Z,34.23
2023-04-02T00:57:44.280Z,34.18
2023-04-02T00:58:43.854Z,34.24
2023-04-02T00:59:43.928Z,34.19
2023-04-02T01:00:43.960Z,34.21
2023-04-02T01:01:44.012Z,34.18
2023-04-02T01:02:44.098Z,34.21
2023-04-02T01:03:44.129Z,34.16
2023-04-02T01:04:44.093Z,34.21
2023-04-02T01:05:44.108Z,34.16
2023-04-02T01:06:44.183Z,34.19
2023-04-02T01:07:44.153Z,34.17
2023-04-02T01:08:44.192Z,34.19
2023-04-02T01:09:44.255Z,34.21
2023-04-02T01:10:44.268Z,34.17
2023-04-02T01:11:44.330Z,34.16
2023-04-02T01:12:44.331Z,34.19
2023-04-02T01:13:44.339Z,34.16
2023-04-02T01:14:44.393Z,34.19
2023-04-02T01:15:44.449Z,34.18
2023-04-02T01:16:44.489Z,34.16
2023-04-02T01:17:44.570Z,34.13
2023-04-02T01:18:44.554Z,34.11
2023-04-02T01:19:44.582Z,34.11
2023-04-02T01:20:44.618Z,34.14
2023-04-02T01:21:44.659Z,34.10
2023-04-02T01:22:44.674Z,34.13
2023-04-02T01:23:44.700Z,34.13
2023-04-02T01:24:44.728Z,34.11
2023-04-02T01:25:44.784Z,34.13
2023-04-02T01:26:44.845Z,34.13
2023-04-02T01:27:45.236Z,34.10
2023-04-02T01:28:44.892Z,34.09
2023-04-02T01:29:44.952Z,34.10
2023-04-02T01:30:44.980Z,34.10
2023-04-02T01:31:45.167Z,34.13
2023-04-02T01:32:45.098Z,34.09
2023-04-02T01:33:45.074Z,34.10
2023-04-02T01:34:45.117Z,34.13
2023-04-02T01:35:45.158Z,34.11
2023-04-02T01:36:45.196Z,34.10
2023-04-02T01:37:45.249Z,34.03
2023-04-02T01:38:45.254Z,34.09
2023-04-02T01:39:45.338Z,34.03
2023-04-02T01:40:45.352Z,34.09
2023-04-02T01:41:45.399Z,34.06
2023-04-02T01:42:45.459Z,34.07
2023-04-02T01:43:45.450Z,34.03
2023-04-02T01:44:45.517Z,34.03
2023-04-02T01:45:45.538Z,34.11
2023-04-02T01:46:45.566Z,34.06
2023-04-02T01:47:45.674Z,34.00
2023-04-02T01:48:45.682Z,34.04
2023-04-02T01:49:45.714Z,34.03
2023-04-02T01:50:45.738Z,34.09
2023-04-02T01:51:45.794Z,34.01
2023-04-02T01:52:45.822Z,34.04
2023-04-02T01:53:45.848Z,34.09
2023-04-02T01:54:45.932Z,34.03
2023-04-02T01:55:45.947Z,33.99
2023-04-02T01:56:45.958Z,34.01
2023-04-02T01:57:46.011Z,34.04
2023-04-02T01:58:46.062Z,34.03
2023-04-02T01:59:46.096Z,34.03
2023-04-02T02:00:46.181Z,34.00
2023-04-02T02:01:46.194Z,33.98
2023-04-02T02:02:46.387Z,34.03
2023-04-02T02:03:46.280Z,33.99
2023-04-02T02:04:46.289Z,34.01
2023-04-02T02:05:46.391Z,34.00
2023-04-02T02:06:46.415Z,33.99
2023-04-02T02:07:46.425Z,34.01
2023-04-02T02:08:46.491Z,34.00
2023-04-02T02:09:46.501Z,34.01
2023-04-02T02:10:46.548Z,33.97
2023-04-02T02:11:46.619Z,34.01
2023-04-02T02:12:46.670Z,33.99
2023-04-02T02:13:46.665Z,33.93
2023-04-02T02:14:46.749Z,34.00
2023-04-02T02:15:46.745Z,33.99
2023-04-02T02:16:46.907Z,33.94
2023-04-02T02:17:46.874Z,34.03
2023-04-02T02:18:46.893Z,34.00
2023-04-02T02:19:46.934Z,33.93
2023-04-02T02:20:46.998Z,33.97
2023-04-02T02:21:47.029Z,33.98
2023-04-02T02:22:47.065Z,33.96
2023-04-02T02:23:47.113Z,33.94
2023-04-02T02:24:47.174Z,33.93
2023-04-02T02:25:47.238Z,33.94
2023-04-02T02:26:47.252Z,33.92
2023-04-02T02:27:47.292Z,33.90
2023-04-02T02:28:47.357Z,33.92
2023-04-02T02:29:47.368Z,33.92
2023-04-02T02:30:47.421Z,33.94
2023-04-02T02:31:47.504Z,33.92
2023-04-02T02:32:47.530Z,33.92
2023-04-02T02:33:47.544Z,33.92
2023-04-02T02:34:47.572Z,33.90
2023-04-02T02:35:47.665Z,33.94
2023-04-02T02:36:47.693Z,33.89
2023-04-02T02:37:47.734Z,33.92
2023-04-02T02:38:47.766Z,33.90
2023-04-02T02:39:47.810Z,33.87
2023-04-02T02:40:47.854Z,33.86
2023-04-02T02:41:47.876Z,33.89
2023-04-02T02:42:47.962Z,33.89
2023-04-02T02:43:47.959Z,33.92
2023-04-02T02:44:48.004Z,33.90
2023-04-02T02:45:48.112Z,33.87
2023-04-02T02:46:48.079Z,33.89
2023-04-02T02:47:48.195Z,33.90
2023-04-02T02:48:48.212Z,33.91
2023-04-02T02:49:48.335Z,33.86
2023-04-02T02:50:48.279Z,33.84
2023-04-02T02:51:48.318Z,33.86
2023-04-02T02:52:48.370Z,33.86
2023-04-02T02:53:48.386Z,33.82
2023-04-02T02:54:48.461Z,33.84
2023-04-02T02:55:48.478Z,33.83
2023-04-02T02:56:48.531Z,33.86
2023-04-02T02:57:48.539Z,33.83
2023-04-02T02:58:48.605Z,33.81
2023-04-02T02:59:48.640Z,33.83
2023-04-02T03:00:48.724Z,33.82
2023-04-02T03:01:48.764Z,33.84
2023-04-02T03:02:48.845Z,33.82
2023-04-02T03:03:48.912Z,33.86
2023-04-02T03:04:48.835Z,33.84
2023-04-02T03:05:48.897Z,33.82
2023-04-02T03:06:48.980Z,33.78
2023-04-02T03:07:48.999Z,33.82
2023-04-02T03:08:49.127Z,33.83
2023-04-02T03:09:49.086Z,33.79
2023-04-02T03:10:49.128Z,33.80
2023-04-02T03:11:49.172Z,33.83
2023-04-02T03:12:49.222Z,33.83
2023-04-02T03:13:49.257Z,33.83
2023-04-02T03:14:49.293Z,33.81
2023-04-02T03:15:49.442Z,33.82
2023-04-02T03:16:49.381Z,33.83
2023-04-02T03:17:49.431Z,33.82
2023-04-02T03:18:49.475Z,33.78
2023-04-02T03:19:49.542Z,33.82
2023-04-02T03:20:49.552Z,33.82
2023-04-02T03:21:49.602Z,33.82
2023-04-02T03:22:49.640Z,33.76
2023-04-02T03:23:49.700Z,33.81
2023-04-02T03:24:49.730Z,33.76
2023-04-02T03:25:49.784Z,33.80
2023-04-02T03:26:49.834Z,33.83
2023-04-02T03:27:49.882Z,33.79
2023-04-02T03:28:49.911Z,33.78
2023-04-02T03:29:49.951Z,33.81
2023-04-02T03:30:50.007Z,33.78
2023-04-02T03:31:50.068Z,33.79
2023-04-02T03:32:50.155Z,33.80
2023-04-02T03:33:50.138Z,33.79
2023-04-02T03:34:50.188Z,33.73
2023-04-02T03:35:50.283Z,33.75
2023-04-02T03:36:50.332Z,33.79
2023-04-02T03:37:50.327Z,33.79
2023-04-02T03:38:50.346Z,33.80
2023-04-02T03:39:50.406Z,33.76
2023-04-02T03:40:50.424Z,33.78
2023-04-02T03:41:50.499Z,33.79
2023-04-02T03:42:50.548Z,33.78
2023-04-02T03:43:50.567Z,33.75
2023-04-02T03:44:50.606Z,33.75
2023-04-02T03:45:50.674Z,33.78
2023-04-02T03:46:50.868Z,33.76
2023-04-02T03:47:50.811Z,33.78
2023-04-02T03:48:50.786Z,33.77
2023-04-02T03:49:50.826Z,33.76
2023-04-02T03:50:50.861Z,33.78
2023-04-02T03:51:51.799Z,33.76
2023-04-02T03:52:50.978Z,33.77
2023-04-02T03:53:50.982Z,33.76
2023-04-02T03:54:53.540Z,33.71
2023-04-02T03:55:51.048Z,33.79
2023-04-02T03:56:51.020Z,33.71
2023-04-02T03:57:51.023Z,33.78
2023-04-02T03:58:51.010Z,33.72
2023-04-02T03:59:50.989Z,33.71
2023-04-02T04:00:50.968Z,33.72
2023-04-02T04:01:51.009Z,33.75
2023-04-02T04:02:51.034Z,33.78
2023-04-02T04:03:51.031Z,33.73
2023-04-02T04:04:50.964Z,33.72
2023-04-02T04:05:50.975Z,33.75
2023-04-02T04:06:50.958Z,33.73
2023-04-02T04:07:50.970Z,33.67
2023-04-02T04:08:50.911Z,33.69
2023-04-02T04:09:50.909Z,33.66
2023-04-02T04:10:50.961Z,33.68
2023-04-02T04:11:50.902Z,33.70
2023-04-02T04:12:50.960Z,33.70
2023-04-02T04:13:50.885Z,33.71
2023-04-02T04:14:50.896Z,33.67
2023-04-02T04:15:50.898Z,33.67
2023-04-02T04:16:50.920Z,33.66
2023-04-02T04:17:50.980Z,33.73
2023-04-02T04:18:50.904Z,33.69
2023-04-02T04:19:50.874Z,33.65
2023-04-02T04:20:50.859Z,33.66
2023-04-02T04:21:50.852Z,33.70
2023-04-02T04:22:50.851Z,33.70
2023-04-02T04:23:50.858Z,33.65
2023-04-02T04:24:50.816Z,33.70
2023-04-02T04:25:50.838Z,33.69
2023-04-02T04:26:50.810Z,33.67
2023-04-02T04:27:50.811Z,33.69
2023-04-02T04:28:50.809Z,33.67
2023-04-02T04:29:50.806Z,33.72
2023-04-02T04:30:50.824Z,33.67
2023-04-02T04:31:50.826Z,33.69
2023-04-02T04:32:50.777Z,33.64
2023-04-02T04:33:50.775Z,33.66
2023-04-02T04:34:50.749Z,33.69
2023-04-02T04:35:50.800Z,33.66
2023-04-02T04:36:50.765Z,33.66
2023-04-02T04:37:50.760Z,33.69
2023-04-02T04:38:50.791Z,33.65
2023-04-02T04:39:50.844Z,33.60
2023-04-02T04:40:50.845Z,33.69
2023-04-02T04:41:50.962Z,33.66
2023-04-02T04:42:50.936Z,33.67
2023-04-02T04:43:50.972Z,33.63
2023-04-02T04:44:51.026Z,33.62
2023-04-02T04:45:51.141Z,33.63
2023-04-02T04:46:51.133Z,33.62
2023-04-02T04:47:51.155Z,33.58
2023-04-02T04:48:51.221Z,33.65
2023-04-02T04:49:51.253Z,33.62
2023-04-02T04:50:51.304Z,33.62
2023-04-02T04:51:51.338Z,33.59
2023-04-02T04:52:51.386Z,33.62
2023-04-02T04:53:51.443Z,33.63
2023-04-02T04:54:51.492Z,33.66
2023-04-02T04:55:51.496Z,33.59
2023-04-02T04:56:51.604Z,33.60
2023-04-02T04:57:51.588Z,33.62
2023-04-02T04:58:51.662Z,33.56
2023-04-02T04:59:51.683Z,33.57
2023-04-02T05:00:51.766Z,33.62
2023-04-02T05:01:51.838Z,33.54
2023-04-02T05:02:51.868Z,33.60
2023-04-02T05:03:51.875Z,33.59
2023-04-02T05:04:51.996Z,33.59
2023-04-02T05:05:51.936Z,33.57
2023-04-02T05:06:51.997Z,33.60
2023-04-02T05:07:52.019Z,33.57
2023-04-02T05:08:52.049Z,33.61
2023-04-02T05:09:52.104Z,33.57
2023-04-02T05:10:52.139Z,33.59
2023-04-02T05:11:52.184Z,33.57
2023-04-02T05:12:52.206Z,33.60
2023-04-02T05:13:52.287Z,33.57
2023-04-02T05:14:52.321Z,33.56
2023-04-02T05:15:52.391Z,33.51
2023-04-02T05:16:52.414Z,33.57
2023-04-02T05:17:52.479Z,33.53
2023-04-02T05:18:52.466Z,33.57
2023-04-02T05:19:52.520Z,33.53
2023-04-02T05:20:52.568Z,33.50
2023-04-02T05:21:52.611Z,33.60
2023-04-02T05:22:52.673Z,33.56
2023-04-02T05:23:52.730Z,33.56
2023-04-02T05:24:52.748Z,33.59
2023-04-02T05:25:52.806Z,33.57
2023-04-02T05:26:52.850Z,33.56
2023-04-02T05:27:52.877Z,33.59
2023-04-02T05:28:52.917Z,33.54
2023-04-02T05:29:52.955Z,33.54
2023-04-02T05:30:53.068Z,33.56
2023-04-02T05:31:53.030Z,33.50
2023-04-02T05:32:53.122Z,33.53
2023-04-02T05:33:53.129Z,33.49
2023-04-02T05:34:53.188Z,33.53
2023-04-02T05:35:53.228Z,33.53
2023-04-02T05:36:53.251Z,33.50
2023-04-02T05:37:53.304Z,33.47
2023-04-02T05:38:53.321Z,33.50
2023-04-02T05:39:53.376Z,33.56
2023-04-02T05:40:53.446Z,33.47
2023-04-02T05:41:53.487Z,33.45
2023-04-02T05:42:53.509Z,33.50
2023-04-02T05:43:53.541Z,33.48
2023-04-02T05:44:53.570Z,33.47
2023-04-02T05:45:53.611Z,33.47
2023-04-02T05:46:53.725Z,33.44
2023-04-02T05:47:53.757Z,33.45
2023-04-02T05:48:53.774Z,33.49
2023-04-02T05:49:53.790Z,33.47
2023-04-02T05:50:53.823Z,33.48
2023-04-02T05:51:54.956Z,33.47
2023-04-02T05:52:53.904Z,33.50
2023-04-02T05:53:53.964Z,33.42
2023-04-02T05:54:54.003Z,33.42
2023-04-02T05:55:54.060Z,33.44
2023-04-02T05:56:54.152Z,33.45
2023-04-02T05:58:13.592Z,33.43
2023-04-02T05:58:55.257Z,33.35
2023-04-02T05:59:54.096Z,33.44
2023-04-02T06:00:54.115Z,33.41
2023-04-02T06:01:54.157Z,33.45
2023-04-02T06:02:54.116Z,33.44
2023-04-02T06:03:54.170Z,33.36
2023-04-02T06:04:54.069Z,33.44
2023-04-02T06:05:54.041Z,33.44
2023-04-02T06:06:54.040Z,33.41
2023-04-02T06:07:54.032Z,33.41
2023-04-02T06:08:54.032Z,33.38
2023-04-02T06:09:54.034Z,33.47
2023-04-02T06:10:54.097Z,33.40
2023-04-02T06:11:54.139Z,33.38
2023-04-02T06:12:54.140Z,33.41
2023-04-02T06:13:54.193Z,33.38
2023-04-02T06:14:54.223Z,33.38
2023-04-02T06:15:54.268Z,33.33
2023-04-02T06:16:54.325Z,33.40
2023-04-02T06:17:54.374Z,33.44
2023-04-02T06:18:54.416Z,33.35
2023-04-02T06:19:54.432Z,33.36
2023-04-02T06:20:54.479Z,33.36
2023-04-02T06:21:54.532Z,33.33
2023-04-02T06:22:54.591Z,33.33
2023-04-02T06:23:54.624Z,33.41
2023-04-02T06:24:54.641Z,33.35
2023-04-02T06:25:54.933Z,33.29
2023-04-02T06:26:54.763Z,33.36
2023-04-02T06:27:54.784Z,33.37
2023-04-02T06:28:54.860Z,33.32
2023-04-02T06:29:54.833Z,33.29
2023-04-02T06:30:54.991Z,33.34
2023-04-02T06:31:54.930Z,33.26
2023-04-02T06:32:55.009Z,33.31
2023-04-02T06:33:55.033Z,33.29
2023-04-02T06:34:55.091Z,33.34
2023-04-02T06:35:55.130Z,33.32
2023-04-02T06:36:55.156Z,33.29
2023-04-02T06:37:55.161Z,33.34
2023-04-02T06:38:55.235Z,33.31
2023-04-02T06:39:55.300Z,33.31
2023-04-02T06:40:58.252Z,33.33
2023-04-02T06:41:55.315Z,33.39
2023-04-02T06:42:55.312Z,33.35
2023-04-02T06:43:55.268Z,33.29
2023-04-02T06:44:55.263Z,33.32
2023-04-02T06:45:55.378Z,33.31
2023-04-02T06:46:55.251Z,33.13
2023-04-02T06:47:55.282Z,32.81
2023-04-02T06:48:55.236Z,33.19
2023-04-02T06:49:55.255Z,33.16
2023-04-02T06:50:55.226Z,32.41
2023-04-02T06:51:55.228Z,32.46
2023-04-02T06:52:55.256Z,32.53
2023-04-02T06:53:55.267Z,32.59
2023-04-02T06:54:55.239Z,32.52
2023-04-02T06:55:55.217Z,32.56
2023-04-02T06:56:55.191Z,32.40
2023-04-02T06:57:55.237Z,32.48
2023-04-02T06:58:55.197Z,32.38
2023-04-02T06:59:55.188Z,32.33
2023-04-02T07:00:55.201Z,32.34
2023-04-02T07:01:55.290Z,32.31
2023-04-02T07:02:55.246Z,32.34
2023-04-02T07:03:55.153Z,32.31
2023-04-02T07:04:55.203Z,32.21
2023-04-02T07:05:55.105Z,32.32
2023-04-02T07:06:55.121Z,32.30
2023-04-02T07:07:55.124Z,32.42
2023-04-02T07:08:55.125Z,32.36
2023-04-02T07:09:55.146Z,32.32
2023-04-02T07:10:55.102Z,32.45
2023-04-02T07:11:55.091Z,32.51
2023-04-02T07:12:55.084Z,32.53
2023-04-02T07:13:55.117Z,32.53
2023-04-02T07:14:55.085Z,32.48
2023-04-02T07:15:55.116Z,32.47
2023-04-02T07:16:55.037Z,32.50
2023-04-02T07:17:55.091Z,32.56
2023-04-02T07:18:55.046Z,32.60
2023-04-02T07:19:55.055Z,32.62
2023-04-02T07:20:55.057Z,32.66
2023-04-02T07:21:55.031Z,32.74
2023-04-02T07:22:55.075Z,32.80
2023-04-02T07:23:55.087Z,32.83
2023-04-02T07:24:55.113Z,32.84
2023-04-02T07:25:55.137Z,32.85
2023-04-02T07:26:55.168Z,32.89
2023-04-02T07:27:55.174Z,32.95
2023-04-02T07:28:55.207Z,32.98
2023-04-02T07:29:55.264Z,33.10
2023-04-02T07:30:55.276Z,33.13
2023-04-02T07:31:55.374Z,33.15
2023-04-02T07:32:55.368Z,33.15
2023-04-02T07:33:55.362Z,33.24
2023-04-02T07:34:55.423Z,33.17
2023-04-02T07:35:55.478Z,33.21
2023-04-02T07:36:55.445Z,33.18
2023-04-02T07:37:55.440Z,33.09
2023-04-02T07:38:55.512Z,33.05
2023-04-02T07:39:55.524Z,32.96
2023-04-02T07:40:55.506Z,32.97
2023-04-02T07:41:55.613Z,32.93
2023-04-02T07:42:55.587Z,32.87
2023-04-02T07:43:55.623Z,32.88
2023-04-02T07:44:55.602Z,32.86
2023-04-02T07:45:55.625Z,32.89
2023-04-02T07:46:55.677Z,32.87
2023-04-02T07:47:55.676Z,32.87
2023-04-02T07:48:55.733Z,32.84
2023-04-02T07:49:55.741Z,32.80
2023-04-02T07:50:55.707Z,32.74
2023-04-02T07:51:55.707Z,32.80
2023-04-02T07:52:55.736Z,32.74
2023-04-02T07:53:55.982Z,32.75
2023-04-02T07:54:55.761Z,32.64
2023-04-02T07:55:55.759Z,32.68
2023-04-02T07:56:55.813Z,32.70
2023-04-02T07:57:55.783Z,32.65
2023-04-02T07:58:55.804Z,32.62
2023-04-02T07:59:55.792Z,32.65
2023-04-02T08:00:55.842Z,32.67
2023-04-02T08:01:55.867Z,32.73
2023-04-02T08:02:55.887Z,32.67
2023-04-02T08:03:55.875Z,32.70
2023-04-02T08:04:55.832Z,32.65
2023-04-02T08:05:55.852Z,32.67
2023-04-02T08:06:55.892Z,32.67
2023-04-02T08:07:55.854Z,32.64
2023-04-02T08:08:55.898Z,32.59
2023-04-02T08:09:55.857Z,32.66
2023-04-02T08:10:55.901Z,32.66
2023-04-02T08:11:55.882Z,32.63
2023-04-02T08:12:55.877Z,32.61
2023-04-02T08:13:55.898Z,32.62
2023-04-02T08:14:55.870Z,32.59
2023-04-02T08:15:55.904Z,32.66
2023-04-02T08:16:56.153Z,32.60
2023-04-02T08:17:55.917Z,32.59
2023-04-02T08:18:55.917Z,32.59
2023-04-02T08:19:55.854Z,32.65
2023-04-02T08:20:55.891Z,32.60
2023-04-02T08:21:55.869Z,32.65
2023-04-02T08:22:55.867Z,32.62
2023-04-02T08:23:55.918Z,32.68
2023-04-02T08:24:55.898Z,32.62
2023-04-02T08:25:55.918Z,32.58
2023-04-02T08:26:55.903Z,32.64
2023-04-02T08:27:55.894Z,32.61
2023-04-02T08:28:55.902Z,32.61
2023-04-02T08:29:55.933Z,32.61
2023-04-02T08:30:55.968Z,32.61
2023-04-02T08:31:55.933Z,32.62
2023-04-02T08:32:55.951Z,32.58
2023-04-02T08:33:55.882Z,32.60
2023-04-02T08:34:55.861Z,32.58
2023-04-02T08:35:55.905Z,32.54
2023-04-02T08:36:55.889Z,32.55
2023-04-02T08:37:55.918Z,32.58
2023-04-02T08:38:55.957Z,32.54
2023-04-02T08:39:55.947Z,32.53
2023-04-02T08:40:55.934Z,32.54
2023-04-02T08:41:55.972Z,32.60
2023-04-02T08:42:55.977Z,32.59
2023-04-02T08:43:55.986Z,32.57
2023-04-02T08:44:56.002Z,32.58
2023-04-02T08:45:56.061Z,32.60
2023-04-02T08:46:56.057Z,32.64
2023-04-02T08:47:56.259Z,32.58
2023-04-02T08:48:56.031Z,32.57
2023-04-02T08:49:56.074Z,32.49
2023-04-02T08:50:56.036Z,32.54
2023-04-02T08:51:56.054Z,32.57
2023-04-02T08:52:56.131Z,32.54
2023-04-02T08:53:56.166Z,32.59
2023-04-02T08:54:56.215Z,32.54
2023-04-02T08:55:56.374Z,32.53
2023-04-02T08:56:56.339Z,32.51
2023-04-02T08:57:56.376Z,32.54
2023-04-02T08:58:56.471Z,32.56
2023-04-02T08:59:56.437Z,32.56
2023-04-02T09:00:56.470Z,32.55
2023-04-02T09:01:56.686Z,32.53
2023-04-02T09:02:56.566Z,32.53
2023-04-02T09:03:56.560Z,32.55
2023-04-02T09:04:57.477Z,32.54
2023-04-02T09:05:56.639Z,32.47
2023-04-02T09:06:56.718Z,32.52
2023-04-02T09:07:56.766Z,32.49
2023-04-02T09:08:56.812Z,32.51
2023-04-02T09:09:56.850Z,32.51
2023-04-02T09:10:56.925Z,32.45
2023-04-02T09:11:57.005Z,32.45
2023-04-02T09:12:57.059Z,32.39
2023-04-02T09:13:57.144Z,32.45
2023-04-02T09:14:57.229Z,32.45
2023-04-02T09:15:57.264Z,32.45
2023-04-02T09:16:57.286Z,32.42
2023-04-02T09:17:59.488Z,32.42
2023-04-02T09:18:57.461Z,32.45
2023-04-02T09:19:57.478Z,32.41
2023-04-02T09:20:57.532Z,32.38
2023-04-02T09:21:57.597Z,32.38
2023-04-02T09:22:57.656Z,32.38
2023-04-02T09:23:57.703Z,32.41
2023-04-02T09:24:57.757Z,32.35
2023-04-02T09:26:04.224Z,32.35
2023-04-02T09:26:58.777Z,32.37
2023-04-02T09:27:57.827Z,32.35
2023-04-02T09:28:57.784Z,32.32
2023-04-02T09:29:57.734Z,32.34
2023-04-02T09:30:57.766Z,32.31
2023-04-02T09:31:57.827Z,32.31
2023-04-02T09:32:57.751Z,32.30
2023-04-02T09:33:57.762Z,32.33
2023-04-02T09:34:57.723Z,32.31
2023-04-02T09:35:58.547Z,32.34
2023-04-02T09:36:57.807Z,32.34
2023-04-02T09:37:57.828Z,32.36
2023-04-02T09:38:57.908Z,32.34
2023-04-02T09:39:57.934Z,32.34
2023-04-02T09:40:57.961Z,32.36
2023-04-02T09:42:05.478Z,32.36
2023-04-02T09:42:59.042Z,32.36
2023-04-02T09:43:58.003Z,32.31
2023-04-02T09:44:58.008Z,32.36
2023-04-02T09:45:57.978Z,32.37
2023-04-02T09:46:58.093Z,32.40
2023-04-02T09:47:58.076Z,32.37
2023-04-02T09:48:57.984Z,32.36
2023-04-02T09:49:57.976Z,32.42
2023-04-02T09:50:57.987Z,32.35
2023-04-02T09:51:57.949Z,32.37
2023-04-02T09:52:58.005Z,32.40
2023-04-02T09:53:58.002Z,32.30
2023-04-02T09:54:58.040Z,32.39
2023-04-02T09:55:58.103Z,32.33
2023-04-02T09:56:58.182Z,32.37
2023-04-02T09:58:00.364Z,32.40
2023-04-02T09:58:58.163Z,32.36
2023-04-02T09:59:58.144Z,32.39
2023-04-02T10:00:58.193Z,32.39
2023-04-02T10:01:58.112Z,32.36
2023-04-02T10:02:58.224Z,32.39
2023-04-02T10:03:58.182Z,32.39
2023-04-02T10:04:58.119Z,32.42
2023-04-02T10:05:58.107Z,32.41
2023-04-02T10:06:58.105Z,32.36
2023-04-02T10:07:58.128Z,32.36
2023-04-02T10:08:58.097Z,32.36
2023-04-02T10:09:58.108Z,32.41
2023-04-02T10:10:58.070Z,32.38
2023-04-02T10:11:58.121Z,32.45
2023-04-02T10:12:58.056Z,32.36
2023-04-02T10:13:58.081Z,32.37
2023-04-02T10:14:58.078Z,32.35
2023-04-02T10:15:58.045Z,32.39
2023-04-02T10:16:58.105Z,32.37
2023-04-02T10:17:58.096Z,32.34
2023-04-02T10:18:58.083Z,32.39
2023-04-02T10:19:58.022Z,32.42
2023-04-02T10:20:58.012Z,32.43
2023-04-02T10:21:58.018Z,32.39
2023-04-02T10:22:58.010Z,32.42
2023-04-02T10:23:58.033Z,32.42
2023-04-02T10:24:58.006Z,32.37
2023-04-02T10:25:58.004Z,32.37
2023-04-02T10:26:57.982Z,32.37
2023-04-02T10:27:58.010Z,32.39
2023-04-02T10:28:57.997Z,32.35
2023-04-02T10:29:58.001Z,32.38
2023-04-02T10:30:58.082Z,32.38
2023-04-02T10:31:57.995Z,32.33
2023-04-02T10:32:57.994Z,32.38
2023-04-02T10:33:57.967Z,32.35
2023-04-02T10:34:57.942Z,32.38
2023-04-02T10:35:58.024Z,32.35
2023-04-02T10:36:57.919Z,32.30
2023-04-02T10:37:57.919Z,32.29
2023-04-02T10:38:57.945Z,32.37
2023-04-02T10:39:57.912Z,32.30
2023-04-02T10:40:57.948Z,32.29
2023-04-02T10:41:57.886Z,32.28
2023-04-02T10:42:57.862Z,32.34
2023-04-02T10:44:01.171Z,32.32
2023-04-02T10:44:58.885Z,32.32
2023-04-02T10:45:57.900Z,32.34
2023-04-02T10:46:57.887Z,32.32
2023-04-02T10:47:58.000Z,32.29
2023-04-02T10:48:57.859Z,32.31
2023-04-02T10:49:57.869Z,32.25
2023-04-02T10:50:57.879Z,32.32
2023-04-02T10:51:57.879Z,32.25
2023-04-02T10:52:57.840Z,32.31
2023-04-02T10:53:57.851Z,32.22
2023-04-02T10:54:57.853Z,32.29
2023-04-02T10:55:57.850Z,32.37
2023-04-02T10:56:57.824Z,32.31
2023-04-02T10:57:57.816Z,32.31
2023-04-02T10:58:57.933Z,32.29
2023-04-02T10:59:57.891Z,32.34
2023-04-02T11:00:57.951Z,32.37
2023-04-02T11:01:58.121Z,32.31
2023-04-02T11:02:58.106Z,32.37
2023-04-02T11:03:58.386Z,32.38
2023-04-02T11:04:59.883Z,32.35
2023-04-02T11:05:58.068Z,32.32
2023-04-02T11:07:07.188Z,32.35
2023-04-02T11:07:59.030Z,32.32
2023-04-02T11:08:58.054Z,32.38
2023-04-02T11:09:58.084Z,32.32
2023-04-02T11:10:57.991Z,32.35
2023-04-02T11:11:58.009Z,32.33
2023-04-02T11:12:57.991Z,32.38
2023-04-02T11:13:58.035Z,32.38
2023-04-02T11:14:57.981Z,32.35
2023-04-02T11:15:57.986Z,32.36
2023-04-02T11:16:57.996Z,32.38
2023-04-02T11:17:58.015Z,32.39
2023-04-02T11:18:57.958Z,32.39
2023-04-02T11:19:57.949Z,32.38
2023-04-02T11:20:57.972Z,32.36
2023-04-02T11:22:00.025Z,32.39
2023-04-02T11:22:58.039Z,32.36
2023-04-02T11:23:58.018Z,32.42
2023-04-02T11:24:58.075Z,32.41
2023-04-02T11:25:57.981Z,32.35
2023-04-02T11:26:58.026Z,32.42
2023-04-02T11:27:57.947Z,32.44
2023-04-02T11:28:57.956Z,32.39
2023-04-02T11:29:57.973Z,32.42
2023-04-02T11:30:57.943Z,32.41
2023-04-02T11:31:57.956Z,32.39
2023-04-02T11:32:57.949Z,32.43
2023-04-02T11:33:57.897Z,32.45
2023-04-02T11:35:06.698Z,32.42
2023-04-02T11:35:58.940Z,32.44
2023-04-02T11:36:57.907Z,32.42
2023-04-02T11:37:57.933Z,32.44
2023-04-02T11:39:07.343Z,32.41
2023-04-02T11:39:58.896Z,32.43
2023-04-02T11:40:57.918Z,32.42
2023-04-02T11:41:57.841Z,32.42
2023-04-02T11:42:57.849Z,32.42
2023-04-02T11:43:57.856Z,32.36
2023-04-02T11:44:57.838Z,32.39
2023-04-02T11:45:58.090Z,32.42
2023-04-02T11:46:57.955Z,32.45
2023-04-02T11:47:57.920Z,32.39
2023-04-02T11:48:57.833Z,32.37
2023-04-02T11:49:57.868Z,32.39
2023-04-02T11:50:57.804Z,32.41
2023-04-02T11:52:10.925Z,32.41
2023-04-02T11:52:58.809Z,32.37
2023-04-02T11:53:57.802Z,32.33
2023-04-02T11:54:57.780Z,32.45
2023-04-02T11:55:57.761Z,32.45
2023-04-02T11:56:57.819Z,32.35
2023-04-02T11:57:57.770Z,32.37
2023-04-02T11:58:57.762Z,32.37
2023-04-02T11:59:57.760Z,32.38
2023-04-02T12:00:57.744Z,32.37
2023-04-02T12:01:57.788Z,32.36
2023-04-02T12:02:57.708Z,32.38
2023-04-02T12:03:57.740Z,32.37
2023-04-02T12:04:57.779Z,32.37
2023-04-02T12:05:57.791Z,32.36
2023-04-02T12:06:57.815Z,32.39
2023-04-02T12:07:58.458Z,32.37
2023-04-02T12:08:58.388Z,32.37
2023-04-02T12:09:57.977Z,32.39
2023-04-02T12:10:58.030Z,32.36
2023-04-02T12:11:57.995Z,32.36
2023-04-02T12:12:58.048Z,32.41
2023-04-02T12:13:58.106Z,32.34
2023-04-02T12:14:58.124Z,32.36
2023-04-02T12:15:58.183Z,32.40
2023-04-02T12:16:58.252Z,32.42
2023-04-02T12:17:58.289Z,32.36
2023-04-02T12:18:58.272Z,32.34
2023-04-02T12:19:58.321Z,32.43
2023-04-02T12:20:58.395Z,32.40
2023-04-02T12:21:58.418Z,32.34
2023-04-02T12:22:58.454Z,32.39
2023-04-02T12:23:58.524Z,32.39
2023-04-02T12:24:58.584Z,32.39
2023-04-02T12:25:58.617Z,32.40
2023-04-02T12:26:58.635Z,32.39
2023-04-02T12:27:58.680Z,32.33
2023-04-02T12:28:58.720Z,32.42
2023-04-02T12:29:58.755Z,32.35
2023-04-02T12:30:58.794Z,32.37
2023-04-02T12:31:58.817Z,32.39
2023-04-02T12:32:58.941Z,32.39
2023-04-02T12:33:58.887Z,32.37
2023-04-02T12:34:59.013Z,32.39
2023-04-02T12:35:59.050Z,32.36
2023-04-02T12:36:59.043Z,32.36
2023-04-02T12:37:59.043Z,32.40
2023-04-02T12:38:59.120Z,32.42
2023-04-02T12:39:59.189Z,32.39
2023-04-02T12:40:59.198Z,32.40
2023-04-02T12:41:59.245Z,32.40
2023-04-02T12:42:59.288Z,32.37
2023-04-02T12:43:59.361Z,32.38
2023-04-02T12:44:59.455Z,32.45
2023-04-02T12:45:59.457Z,32.41
2023-04-02T12:46:59.506Z,32.37
2023-04-02T12:47:59.573Z,32.43
2023-04-02T12:48:59.537Z,32.47
2023-04-02T12:49:59.608Z,32.38
2023-04-02T12:50:59.666Z,32.40
2023-04-02T12:51:59.690Z,32.40
2023-04-02T12:52:59.789Z,32.38